Time;durP1;ratioP1;P1;durP2;ratioP2;P2;SDS_P1;SDS_P2;PMS_P1;PMS_P2;Temp;Humidity;BMP_temperature;BMP_pressure;BME280_temperature;BME280_humidity;BME280_pressure;Samples;Min_cycle;Max_cycle;Signal;HPM_P1;HPM_P2
2022/08/10 00:00:27;;;;;;;1.47;1.37;;;;;;;17.64;73.62;102844.66;5098632;28;20126;-75
2022/08/10 00:02:57;;;;;;;1.95;1.45;;;;;;;17.58;73.89;102839.03;5088949;28;20452;-73
2022/08/10 00:05:23;;;;;;;4.03;1.45;;;;;;;17.56;74.21;102839.22;5091822;28;20051;-74
2022/08/10 00:07:50;;;;;;;1.67;1.50;;;;;;;17.54;74.45;102840.47;5089485;28;20028;-73
2022/08/10 00:10:17;;;;;;;7.03;1.48;;;;;;;17.46;74.68;102835.88;5093099;28;20792;-75
2022/08/10 00:12:44;;;;;;;6.97;1.98;;;;;;;17.54;74.46;102837.69;5092506;28;20108;-74
2022/08/10 00:15:13;;;;;;;1.90;1.65;;;;;;;17.49;74.64;102837.41;5071581;28;20028;-74
2022/08/10 00:17:38;;;;;;;1.30;1.30;;;;;;;17.43;74.34;102833.53;5094513;28;20042;-74
2022/08/10 00:20:05;;;;;;;2.27;1.47;;;;;;;17.44;74.10;102834.41;5089901;28;20367;-73
2022/08/10 00:22:31;;;;;;;4.10;1.67;;;;;;;17.42;74.70;102833.72;5097945;28;20452;-74
2022/08/10 00:24:56;;;;;;;2.07;1.60;;;;;;;17.40;74.32;102821.97;5068876;28;20123;-74
2022/08/10 00:27:24;;;;;;;2.17;1.63;;;;;;;17.40;74.37;102827.53;5095692;28;20475;-73
2022/08/10 00:29:49;;;;;;;1.80;1.38;;;;;;;17.46;74.21;102821.19;5071440;28;20429;-73
2022/08/10 00:32:15;;;;;;;2.43;1.60;;;;;;;17.38;74.50;102822.16;5091306;28;20095;-74
2022/08/10 00:34:40;;;;;;;3.87;1.47;;;;;;;17.34;74.45;102818.00;5096480;28;20081;-74
2022/08/10 00:37:05;;;;;;;2.73;1.93;;;;;;;17.32;73.98;102820.13;5107741;28;20023;-73
2022/08/10 00:39:31;;;;;;;2.37;1.50;;;;;;;17.31;74.11;102817.56;5113162;28;20030;-73
2022/08/10 00:41:56;;;;;;;2.33;1.57;;;;;;;17.24;74.65;102819.38;5099826;28;20095;-74
2022/08/10 00:44:23;;;;;;;3.50;1.33;;;;;;;17.26;74.55;102817.28;5081943;28;20031;-74
2022/08/10 00:46:49;;;;;;;1.58;1.48;;;;;;;17.21;74.99;102822.53;5093843;28;20074;-72
2022/08/10 00:49:14;;;;;;;2.40;1.60;;;;;;;17.23;74.56;102820.44;5075495;28;20391;-74
2022/08/10 00:51:40;;;;;;;1.53;1.43;;;;;;;17.23;74.26;102825.97;5111920;28;20034;-73
2022/08/10 00:54:07;;;;;;;1.67;1.58;;;;;;;17.22;74.64;102829.78;5078628;28;20126;-74
2022/08/10 00:56:32;;;;;;;;;;;;;;;17.21;74.32;102825.28;5113581;28;20036;-74
2022/08/10 00:58:58;;;;;;;2.63;1.70;;;;;;;17.18;74.51;102823.78;5087171;28;19923;-72
2022/08/10 01:01:23;;;;;;;2.63;2.43;;;;;;;17.17;74.28;102824.81;5104412;28;20036;-73
2022/08/10 01:03:49;;;;;;;1.53;1.33;;;;;;;17.10;74.38;102820.25;5078573;28;20769;-74
2022/08/10 01:06:37;;;;;;;1.93;1.83;;;;;;;17.04;75.18;102821.00;5081740;28;20031;-74
2022/08/10 01:09:41;;;;;;;1.50;1.40;;;;;;;17.05;74.83;102817.19;5079065;28;20842;-74
2022/08/10 01:12:28;;;;;;;2.53;1.25;;;;;;;17.02;74.90;102820.34;5110768;28;20051;-74
2022/08/10 01:15:20;;;;;;;4.03;2.17;;;;;;;16.98;74.99;102807.94;5110501;28;20031;-73
2022/08/10 01:18:13;;;;;;;2.10;1.30;;;;;;;16.90;74.95;102814.44;5074730;28;20521;-74
2022/08/10 01:21:16;;;;;;;1.77;1.67;;;;;;;16.82;75.32;102803.44;5074460;28;20086;-75
2022/08/10 01:24:03;;;;;;;2.05;1.80;;;;;;;16.78;75.33;102806.78;5206258;22;20312;-76
2022/08/10 01:26:38;;;;;;;4.90;1.77;;;;;;;16.77;75.83;102802.28;4993401;28;20069;-77
2022/08/10 01:29:48;;;;;;;4.57;1.63;;;;;;;16.75;75.68;102801.63;4993586;28;20117;-75
2022/08/10 01:32:16;;;;;;;3.47;1.67;;;;;;;16.71;75.50;102803.06;4988081;28;20026;-76
2022/08/10 01:34:57;;;;;;;2.70;1.50;;;;;;;16.71;75.81;102803.91;4991816;28;20022;-76
2022/08/10 01:37:29;;;;;;;1.70;1.60;;;;;;;16.68;75.75;102800.66;4983855;28;20038;-75
2022/08/10 01:39:57;;;;;;;2.10;1.90;;;;;;;16.65;75.24;102792.75;4988734;28;20039;-77
2022/08/10 01:42:24;;;;;;;1.77;1.65;;;;;;;16.60;75.90;102801.59;4991195;28;20081;-76
2022/08/10 01:44:58;;;;;;;1.88;1.77;;;;;;;16.56;75.64;102807.72;4992947;28;20108;-77
2022/08/10 01:50:19;;;;;;;4.43;1.83;;;;;;;16.54;75.80;102798.75;4992451;28;20114;-77
2022/08/10 01:52:49;;;;;;;1.60;1.50;;;;;;;16.59;75.56;102804.59;4991314;28;20189;-76
2022/08/10 01:55:16;;;;;;;3.05;1.80;;;;;;;16.61;75.51;102808.00;4993089;28;20030;-77
2022/08/10 01:57:44;;;;;;;1.77;1.60;;;;;;;16.58;75.47;102808.38;4992427;28;20026;-78
2022/08/10 02:00:12;;;;;;;2.28;1.90;;;;;;;16.49;76.04;102802.06;4993319;28;20039;-78
2022/08/10 02:02:39;;;;;;;2.10;1.85;;;;;;;16.52;76.13;102809.13;4987556;28;20428;-77
2022/08/10 02:05:06;;;;;;;1.73;1.50;;;;;;;16.47;76.05;102806.06;4992568;28;20034;-77
2022/08/10 02:07:33;;;;;;;2.00;1.80;;;;;;;16.41;75.95;102790.22;4991651;28;20501;-77
2022/08/10 02:10:03;;;;;;;2.10;1.52;;;;;;;16.35;75.79;102799.25;4992633;28;20569;-77
2022/08/10 02:12:31;;;;;;;3.78;2.58;;;;;;;16.37;76.15;102799.91;4992067;28;20037;-78
2022/08/10 02:15:00;;;;;;;1.90;1.80;;;;;;;16.37;75.85;102800.78;4992493;28;20141;-76
2022/08/10 02:17:30;;;;;;;1.73;1.52;;;;;;;16.28;76.51;102798.28;4990855;28;20116;-77
2022/08/10 02:19:58;;;;;;;2.47;2.00;;;;;;;16.29;76.63;102803.63;4991972;28;20525;-77
2022/08/10 02:22:25;;;;;;;2.08;1.98;;;;;;;16.28;76.29;102801.88;4975864;28;20035;-76
2022/08/10 02:24:51;;;;;;;2.00;1.70;;;;;;;16.28;76.91;102801.03;4986805;28;20477;-77
2022/08/10 02:27:19;;;;;;;2.15;1.70;;;;;;;16.21;76.40;102800.06;4989999;28;20073;-76
2022/08/10 02:29:46;;;;;;;1.90;1.80;;;;;;;16.20;77.14;102799.22;4991295;28;20120;-77
2022/08/10 02:32:12;;;;;;;2.17;2.03;;;;;;;16.13;77.13;102800.13;4992686;28;20109;-76
2022/08/10 02:34:40;;;;;;;2.13;1.98;;;;;;;16.14;77.12;102793.56;4992132;28;20157;-75
2022/08/10 02:37:07;;;;;;;3.33;2.10;;;;;;;16.10;77.00;102800.50;4990983;28;20505;-74
2022/08/10 02:39:36;;;;;;;5.53;2.03;;;;;;;16.04;77.49;102792.94;4975359;28;20081;-75
2022/08/10 02:42:12;;;;;;;2.42;1.65;;;;;;;16.06;77.29;102790.88;4991861;28;20050;-76
2022/08/10 02:44:53;;;;;;;1.90;1.80;;;;;;;16.04;77.16;102793.81;4989752;28;20037;-76
2022/08/10 02:47:25;;;;;;;2.05;1.70;;;;;;;16.06;77.29;102788.13;4987508;28;20398;-76
2022/08/10 02:49:56;;;;;;;3.22;1.98;;;;;;;16.04;77.58;102777.22;4989670;28;20026;-75
2022/08/10 02:52:28;;;;;;;1.73;1.63;;;;;;;16.02;77.11;102775.69;4991990;28;20070;-76
2022/08/10 02:55:21;;;;;;;2.55;1.92;;;;;;;15.96;77.48;102779.22;4987939;28;20022;-76
2022/08/10 02:57:51;;;;;;;2.78;2.28;;;;;;;15.96;77.84;102770.91;4974336;28;20507;-76
2022/08/10 03:00:17;;;;;;;2.13;1.90;;;;;;;15.94;77.45;102778.50;4990485;28;20026;-77
2022/08/10 03:02:48;;;;;;;2.93;2.53;;;;;;;15.93;77.71;102765.75;4988188;28;20029;-76
2022/08/10 03:05:18;;;;;;;3.80;2.33;;;;;;;15.85;77.99;102774.13;4989636;28;20280;-76
2022/08/10 03:07:52;;;;;;;4.55;2.22;;;;;;;15.88;77.54;102773.72;4992302;28;20488;-75
2022/08/10 03:10:22;;;;;;;2.20;2.00;;;;;;;15.84;78.03;102767.72;4989856;28;20030;-74
2022/08/10 03:13:00;;;;;;;3.50;1.95;;;;;;;15.78;78.47;102764.81;4989947;28;20042;-76
2022/08/10 03:15:28;;;;;;;2.47;1.98;;;;;;;15.75;77.92;102759.69;4984250;28;20112;-75
2022/08/10 03:17:55;;;;;;;5.13;2.00;;;;;;;15.74;78.50;102763.50;4990994;28;20117;-77
2022/08/10 03:20:22;;;;;;;3.88;1.98;;;;;;;15.80;77.68;102773.81;4989103;28;20042;-76
2022/08/10 03:22:52;;;;;;;3.30;1.90;;;;;;;15.75;78.34;102757.75;4990047;28;20078;-77
2022/08/10 03:25:20;;;;;;;2.33;2.13;;;;;;;15.79;78.07;102772.94;4989046;28;20092;-76
2022/08/10 03:27:47;;;;;;;2.13;2.03;;;;;;;15.74;77.97;102771.78;4990110;28;20053;-76
2022/08/10 03:30:12;;;;;;;2.47;2.28;;;;;;;15.73;78.15;102772.81;4989099;28;20485;-77
2022/08/10 03:32:39;;;;;;;2.73;2.00;;;;;;;15.68;78.25;102767.84;4989876;28;20117;-77
2022/08/10 03:35:07;;;;;;;2.50;2.30;;;;;;;15.67;78.38;102762.50;4992536;28;20492;-77
2022/08/10 03:37:33;;;;;;;2.53;2.05;;;;;;;15.65;78.77;102765.47;4991005;28;20133;-78
2022/08/10 03:39:58;;;;;;;2.17;2.07;;;;;;;15.62;78.63;102767.69;4989065;28;20041;-77
2022/08/10 03:42:26;;;;;;;3.20;2.13;;;;;;;15.57;78.84;102762.75;4991287;28;20034;-75
2022/08/10 03:44:52;;;;;;;3.50;2.40;;;;;;;15.50;79.01;102763.66;4990505;28;20041;-76
2022/08/10 03:47:20;;;;;;;2.53;2.30;;;;;;;15.51;79.22;102762.59;4991218;28;20478;-76
2022/08/10 03:49:47;;;;;;;3.28;2.45;;;;;;;15.48;79.37;102765.75;4990515;28;20118;-76
2022/08/10 03:52:15;;;;;;;2.58;2.30;;;;;;;15.43;79.42;102762.66;4990838;28;20065;-77
2022/08/10 03:54:41;;;;;;;2.33;2.13;;;;;;;15.44;79.16;102753.34;4986537;28;20121;-75
2022/08/10 03:57:08;;;;;;;4.88;2.53;;;;;;;15.39;79.72;102762.19;4990549;28;20158;-77
2022/08/10 03:59:37;;;;;;;3.65;2.58;;;;;;;15.44;79.49;102761.63;4991469;28;20076;-77
2022/08/10 04:02:05;;;;;;;3.10;2.80;;;;;;;15.37;79.91;102761.47;4989943;28;20177;-76
2022/08/10 04:04:30;;;;;;;4.35;2.42;;;;;;;15.30;80.45;102760.47;4990307;28;20027;-76
2022/08/10 04:06:58;;;;;;;6.80;2.57;;;;;;;15.33;80.31;102760.16;4990254;28;20129;-76
2022/08/10 04:09:29;;;;;;;3.58;2.75;;;;;;;15.32;80.50;102765.81;4987336;28;20034;-77
2022/08/10 04:11:54;;;;;;;3.95;2.88;;;;;;;15.35;79.86;102771.00;4990874;28;20122;-76
2022/08/10 04:14:19;;;;;;;2.63;2.43;;;;;;;15.34;80.00;102766.50;4986182;28;21964;-75
2022/08/10 04:16:45;;;;;;;5.00;3.00;;;;;;;15.29;80.90;102769.78;5000841;28;20046;-74
2022/08/10 04:19:15;;;;;;;3.33;2.90;;;;;;;15.30;80.79;102768.75;4987173;28;20018;-75
2022/08/10 04:21:46;;;;;;;3.22;2.55;;;;;;;15.35;80.52;102779.28;4990715;28;20031;-78
2022/08/10 04:24:16;;;;;;;5.35;2.92;;;;;;;15.33;80.42;102767.56;4979568;28;20030;-77
2022/08/10 04:26:42;;;;;;;5.40;2.55;;;;;;;15.31;80.79;102761.34;4986160;28;20580;-76
2022/08/10 04:29:08;;;;;;;4.15;2.47;;;;;;;15.34;80.50;102767.38;4981813;28;20026;-75
2022/08/10 04:31:35;;;;;;;4.77;2.60;;;;;;;15.31;81.19;102772.38;4991281;28;20040;-78
2022/08/10 04:34:01;;;;;;;2.85;2.58;;;;;;;15.32;80.94;102763.06;4987015;28;20409;-75
2022/08/10 04:36:29;;;;;;;4.07;3.33;;;;;;;15.36;80.97;102772.72;4991444;28;20508;-76
2022/08/10 04:38:55;;;;;;;3.38;2.95;;;;;;;15.39;80.50;102776.00;4989513;28;20027;-76
2022/08/10 04:41:21;;;;;;;6.57;3.00;;;;;;;15.37;80.86;102766.16;4998427;28;20080;-76
2022/08/10 04:43:46;;;;;;;3.40;3.10;;;;;;;15.41;80.63;102770.25;4984950;28;20027;-76
2022/08/10 04:46:13;;;;;;;2.83;2.57;;;;;;;15.38;80.98;102767.88;4991857;28;20069;-77
2022/08/10 04:48:41;;;;;;;3.40;2.95;;;;;;;15.31;81.28;102773.22;4996336;28;20064;-77
2022/08/10 04:51:14;;;;;;;3.20;2.70;;;;;;;15.42;80.88;102766.47;4992764;28;20390;-78
2022/08/10 04:53:40;;;;;;;5.18;2.88;;;;;;;15.36;81.60;102759.78;4988343;28;20030;-76
2022/08/10 04:56:07;;;;;;;7.20;3.30;;;;;;;15.42;80.78;102763.72;4990814;28;20023;-76
2022/08/10 04:58:35;;;;;;;3.17;2.80;;;;;;;15.45;81.25;102757.81;4988114;28;20537;-75
2022/08/10 05:01:01;;;;;;;5.43;2.70;;;;;;;15.47;81.19;102762.09;4992531;28;20038;-76
2022/08/10 05:03:26;;;;;;;3.05;2.75;;;;;;;15.51;81.02;102759.84;4989532;28;20027;-75
2022/08/10 05:05:52;;;;;;;5.20;2.63;;;;;;;15.53;80.63;102755.00;4988269;28;20088;-77
2022/08/10 05:08:17;;;;;;;7.13;3.20;;;;;;;15.55;80.76;102752.91;4988896;28;20084;-76
2022/08/10 05:10:42;;;;;;;3.00;2.80;;;;;;;15.61;80.60;102752.19;4988272;28;20115;-76
2022/08/10 05:13:08;;;;;;;5.27;3.33;;;;;;;15.63;80.09;102758.41;4988572;28;20031;-76
2022/08/10 05:15:34;;;;;;;5.23;3.23;;;;;;;15.67;80.47;102756.97;4987608;28;20501;-78
2022/08/10 05:17:59;;;;;;;5.87;3.10;;;;;;;15.74;80.28;102757.97;4972172;28;20120;-77
2022/08/10 05:20:24;;;;;;;3.73;3.27;;;;;;;15.77;80.24;102758.44;4990061;28;20030;-75
2022/08/10 05:22:50;;;;;;;7.40;3.20;;;;;;;15.84;80.18;102756.66;4989486;28;20156;-78
2022/08/10 05:25:18;;;;;;;5.17;3.53;;;;;;;15.93;79.70;102762.97;4988381;28;20077;-76
2022/08/10 05:27:45;;;;;;;3.85;3.28;;;;;;;15.92;79.85;102761.25;4981256;28;20041;-76
2022/08/10 05:30:18;;;;;;;4.50;3.25;;;;;;;15.96;80.06;102765.38;4990536;28;20046;-75
2022/08/10 05:32:44;;;;;;;4.53;3.38;;;;;;;15.99;79.88;102762.22;4990580;28;20168;-76
2022/08/10 05:35:11;;;;;;;6.43;3.97;;;;;;;16.02;79.82;102767.41;4990190;28;20125;-76
2022/08/10 05:37:39;;;;;;;4.05;3.65;;;;;;;16.09;79.23;102763.72;4990261;28;20288;-76
2022/08/10 05:40:05;;;;;;;5.28;3.63;;;;;;;16.10;79.81;102775.63;4988253;28;20045;-75
2022/08/10 05:42:31;;;;;;;4.63;4.00;;;;;;;16.14;79.63;102777.84;4964260;28;20031;-77
2022/08/10 05:44:56;;;;;;;6.60;3.80;;;;;;;16.19;79.53;102771.75;4983808;28;20049;-75
2022/08/10 05:47:22;;;;;;;6.93;3.93;;;;;;;16.14;80.03;102763.13;4993653;28;20089;-76
2022/08/10 05:49:49;;;;;;;6.23;4.03;;;;;;;16.24;79.78;102769.28;4980076;28;20048;-76
2022/08/10 05:52:16;;;;;;;8.55;3.70;;;;;;;16.32;79.62;102764.53;4990338;28;20069;-76
2022/08/10 05:54:41;;;;;;;4.38;3.95;;;;;;;16.35;79.23;102775.22;4991358;28;20045;-76
2022/08/10 05:57:07;;;;;;;6.13;4.13;;;;;;;16.38;79.58;102772.06;4997837;28;20030;-75
2022/08/10 05:59:35;;;;;;;6.00;4.43;;;;;;;16.51;78.95;102772.31;4988954;28;20367;-78
2022/08/10 06:02:03;;;;;;;7.78;4.32;;;;;;;16.68;78.27;102773.84;4986078;28;20140;-77
2022/08/10 06:04:36;;;;;;;5.35;3.60;;;;;;;16.71;78.58;102772.63;4987925;28;20726;-76
2022/08/10 06:07:03;;;;;;;4.95;3.65;;;;;;;16.84;77.80;102781.09;4991237;28;20116;-77
2022/08/10 06:09:30;;;;;;;5.85;4.13;;;;;;;16.88;78.13;102771.38;4990993;28;20371;-77
2022/08/10 06:11:57;;;;;;;5.43;4.10;;;;;;;16.87;77.84;102772.44;4988448;28;20044;-76
2022/08/10 06:17:07;;;;;;;5.47;4.53;;;;;;;17.05;77.33;102770.09;4991110;28;20021;-75
2022/08/10 06:19:33;;;;;;;7.47;3.80;;;;;;;17.26;76.94;102767.41;4991578;28;20114;-76
2022/08/10 06:22:00;;;;;;;6.43;4.50;;;;;;;17.28;76.70;102768.09;4989020;28;20022;-77
2022/08/10 06:24:29;;;;;;;5.95;4.10;;;;;;;17.32;76.79;102769.38;4986264;28;20098;-77
2022/08/10 06:26:54;;;;;;;8.48;4.47;;;;;;;17.34;77.06;102775.63;4986357;28;20035;-75
2022/08/10 06:29:21;;;;;;;7.43;4.70;;;;;;;17.42;76.74;102769.97;4986157;28;20034;-75
2022/08/10 06:31:50;;;;;;;6.40;4.80;;;;;;;18.42;73.69;102755.84;4990670;28;20113;-75
2022/08/10 06:34:28;;;;;;;5.40;4.90;;;;;;;20.11;70.05;102760.25;4990252;28;20061;-76
2022/08/10 06:36:54;;;;;;;;;;;;;;;21.26;63.63;102766.94;4987749;28;20149;-76
2022/08/10 06:39:21;;;;;;;5.85;4.05;;;;;;;21.57;61.68;102762.28;4989776;28;19918;-76
2022/08/10 06:41:50;;;;;;;5.47;4.18;;;;;;;22.10;60.47;102774.00;4985714;28;20038;-77
2022/08/10 06:44:21;;;;;;;4.63;3.53;;;;;;;22.22;59.19;102774.97;5001153;28;20026;-75
2022/08/10 06:46:49;;;;;;;5.88;3.60;;;;;;;22.24;59.37;102772.81;4982561;28;20034;-76
2022/08/10 06:49:20;;;;;;;5.95;3.60;;;;;;;22.84;57.67;102774.84;4987402;28;20042;-77
2022/08/10 06:51:48;;;;;;;7.63;3.60;;;;;;;23.40;57.59;102778.28;4988461;28;20031;-82
2022/08/10 06:54:16;;;;;;;10.07;3.55;;;;;;;23.32;57.22;102784.22;4989152;28;20026;-79
2022/08/10 06:56:44;;;;;;;6.70;3.67;;;;;;;23.63;55.58;102784.84;4980478;28;20093;-78
2022/08/10 06:59:26;;;;;;;5.95;4.15;;;;;;;24.13;55.72;102780.72;4983603;28;20569;-79
2022/08/10 07:02:01;;;;;;;3.63;3.28;;;;;;;24.05;54.19;102778.25;4984155;28;20077;-76
2022/08/10 07:04:31;;;;;;;3.80;3.40;;;;;;;24.20;54.27;102780.59;4992220;28;20397;-76
2022/08/10 07:07:03;;;;;;;4.10;3.42;;;;;;;23.98;54.95;102785.91;4989221;28;20030;-78
2022/08/10 07:09:31;;;;;;;3.78;3.38;;;;;;;24.28;54.67;102783.06;4983948;28;20370;-78
2022/08/10 07:11:58;;;;;;;7.07;3.28;;;;;;;24.61;52.58;102788.97;4983319;28;20026;-78
2022/08/10 07:14:25;;;;;;;8.35;3.50;;;;;;;24.37;53.97;102775.97;4995058;28;20066;-78
2022/08/10 07:16:52;;;;;;;5.22;3.20;;;;;;;24.45;52.38;102779.31;4988539;28;20117;-78
2022/08/10 07:19:20;;;;;;;9.70;3.53;;;;;;;24.22;53.14;102784.03;4989773;28;20108;-77
2022/08/10 07:21:46;;;;;;;4.75;3.75;;;;;;;24.11;53.02;102779.25;4992036;28;20105;-78
2022/08/10 07:24:14;;;;;;;3.92;3.53;;;;;;;24.30;54.58;102778.06;4988734;28;20026;-76
2022/08/10 07:26:47;;;;;;;5.55;3.30;;;;;;;24.50;53.00;102782.22;4986621;28;20509;-78
2022/08/10 07:29:14;;;;;;;3.72;3.35;;;;;;;24.77;51.75;102782.63;4997198;28;20037;-79
2022/08/10 07:31:41;;;;;;;4.38;3.70;;;;;;;24.84;51.74;102781.41;4973565;28;20061;-79
2022/08/10 07:34:08;;;;;;;7.68;3.45;;;;;;;24.47;53.46;102771.50;4990025;28;20030;-78
2022/08/10 07:36:35;;;;;;;5.88;3.03;;;;;;;24.62;53.15;102768.25;4989552;28;20176;-79
2022/08/10 07:39:01;;;;;;;5.43;3.67;;;;;;;24.57;53.13;102773.69;4989330;28;20052;-76
2022/08/10 07:41:30;;;;;;;4.97;3.70;;;;;;;24.42;52.61;102771.38;4984907;28;20477;-77
2022/08/10 07:43:58;;;;;;;4.50;3.25;;;;;;;24.34;52.67;102770.88;4998699;28;20447;-78
2022/08/10 07:46:27;;;;;;;5.03;3.20;;;;;;;25.02;51.57;102774.81;4988564;28;20164;-76
2022/08/10 07:49:03;;;;;;;4.90;3.00;;;;;;;24.54;53.26;102763.81;4971546;28;20087;-79
2022/08/10 07:51:30;;;;;;;5.38;3.45;;;;;;;24.46;53.09;102768.94;4984843;28;20462;-78
2022/08/10 07:54:00;;;;;;;4.70;3.35;;;;;;;24.20;53.59;102777.78;4985666;28;20474;-78
2022/08/10 07:56:27;;;;;;;5.10;3.53;;;;;;;23.96;54.53;102770.44;4985643;28;20030;-78
2022/08/10 07:58:58;;;;;;;4.72;3.20;;;;;;;24.28;53.43;102781.09;4989139;28;20053;-78
2022/08/10 08:01:27;;;;;;;10.15;3.63;;;;;;;24.26;54.06;102765.59;4989479;28;20440;-78
2022/08/10 08:03:54;;;;;;;12.63;3.72;;;;;;;24.10;54.79;102777.50;4990700;28;20038;-79
2022/08/10 08:06:21;;;;;;;7.60;2.90;;;;;;;24.38;53.37;102774.91;4990469;28;20481;-78
2022/08/10 08:08:48;;;;;;;4.13;3.17;;;;;;;23.93;54.82;102782.09;4990472;28;20034;-77
2022/08/10 08:11:14;;;;;;;6.60;3.42;;;;;;;23.90;55.03;102779.78;4988616;28;20049;-79
2022/08/10 08:13:41;;;;;;;4.95;3.63;;;;;;;24.18;54.30;102782.78;4989119;28;20117;-78
2022/08/10 08:16:07;;;;;;;;;;;;;;;23.84;55.08;102780.72;4988751;28;20116;-77
2022/08/10 08:18:35;;;;;;;12.02;3.60;;;;;;;23.92;55.68;102786.00;4984211;28;19917;-77
2022/08/10 08:21:02;;;;;;;4.20;3.63;;;;;;;24.29;55.53;102788.44;4985833;28;20064;-77
2022/08/10 08:23:30;;;;;;;4.88;3.63;;;;;;;24.23;55.56;102788.53;4986147;28;20800;-76
2022/08/10 08:25:56;;;;;;;4.50;3.17;;;;;;;23.81;54.97;102789.56;4989440;28;20042;-79
2022/08/10 08:28:23;;;;;;;;;;;;;;;23.83;54.53;102791.03;4989597;28;20465;-77
2022/08/10 08:30:49;;;;;;;6.22;3.20;;;;;;;23.66;55.07;102784.41;4983691;28;19925;-77
2022/08/10 08:33:17;;;;;;;6.97;3.72;;;;;;;23.83;54.64;102782.63;4982325;28;20065;-78
2022/08/10 08:35:44;;;;;;;7.60;3.20;;;;;;;23.93;54.74;102787.69;4982114;28;20390;-77
2022/08/10 08:38:11;;;;;;;5.65;3.22;;;;;;;23.87;54.80;102786.69;4988852;28;20568;-77
2022/08/10 08:40:39;;;;;;;4.65;3.50;;;;;;;23.93;53.90;102779.28;4984974;28;20042;-77
2022/08/10 08:43:43;;;;;;;11.07;3.42;;;;;;;23.94;54.80;102787.47;4988733;28;20176;-77
2022/08/10 08:46:27;;;;;;;5.82;3.20;;;;;;;23.99;52.71;102787.59;4980969;28;20030;-76
2022/08/10 08:49:29;;;;;;;14.02;3.75;;;;;;;24.20;54.15;102786.19;4986581;28;20066;-79
2022/08/10 08:52:16;;;;;;;5.68;3.00;;;;;;;24.57;53.16;102784.91;4984536;28;20125;-79
2022/08/10 08:54:53;;;;;;;4.50;3.17;;;;;;;24.58;53.13;102781.03;4985336;28;20037;-79
2022/08/10 08:57:27;;;;;;;6.55;3.35;;;;;;;24.64;52.89;102783.72;4986253;28;20412;-78
2022/08/10 08:59:59;;;;;;;3.85;3.13;;;;;;;24.43;52.66;102780.66;4992589;28;20031;-78
2022/08/10 09:03:02;;;;;;;4.32;3.20;;;;;;;24.49;51.88;102777.72;4987558;28;20026;-75
2022/08/10 09:05:54;;;;;;;3.50;3.20;;;;;;;24.60;51.57;102768.47;4972333;28;20042;-76
2022/08/10 09:09:29;;;;;;;4.15;2.92;;;;;;;25.10;50.52;102768.81;4989111;28;20062;-76
2022/08/10 09:12:21;;;;;;;7.88;3.42;;;;;;;24.88;51.51;102759.34;4932955;28;20047;-76
2022/08/10 09:14:46;;;;;;;4.20;3.10;;;;;;;25.21;50.83;102765.13;4934061;29;20063;-76
2022/08/10 09:17:27;;;;;;;4.77;2.80;;;;;;;25.51;49.81;102763.03;4976274;28;20049;-76
2022/08/10 09:20:06;;;;;;;3.20;2.25;;;;;;;25.78;49.24;102761.31;4991262;28;20578;-77
2022/08/10 09:23:08;;;;;;;4.78;2.95;;;;;;;25.92;48.60;102757.16;4990220;28;20070;-75
2022/08/10 09:25:36;;;;;;;3.65;2.42;;;;;;;25.98;48.27;102756.13;4989367;28;20117;-78
2022/08/10 09:28:08;;;;;;;4.03;2.65;;;;;;;26.20;48.34;102755.13;4989907;28;20022;-78
2022/08/10 09:30:52;;;;;;;7.35;3.00;;;;;;;26.17;47.92;102752.81;4992958;28;20038;-77
2022/08/10 09:33:45;;;;;;;7.65;2.88;;;;;;;26.02;47.60;102751.69;4988818;28;20486;-79
2022/08/10 09:36:41;;;;;;;4.68;2.35;;;;;;;26.22;46.38;102747.31;4986066;28;20022;-77
2022/08/10 09:39:15;;;;;;;5.97;2.30;;;;;;;26.35;45.68;102746.13;4985342;28;20032;-77
2022/08/10 09:42:25;;;;;;;5.80;2.47;;;;;;;26.40;47.32;102747.03;4988065;28;20042;-76
2022/08/10 09:45:22;;;;;;;4.15;2.35;;;;;;;26.66;45.24;102743.56;4989485;28;20042;-79
2022/08/10 09:48:12;;;;;;;5.10;3.17;;;;;;;26.66;46.45;102746.38;4982520;28;20031;-75
2022/08/10 09:50:50;;;;;;;3.90;2.42;;;;;;;26.95;45.37;102739.47;4987306;28;20303;-77
2022/08/10 09:53:23;;;;;;;3.85;2.17;;;;;;;27.07;44.68;102736.56;4993932;28;20121;-77
2022/08/10 09:55:57;;;;;;;2.55;2.22;;;;;;;27.16;44.43;102741.47;4985914;28;20034;-79
2022/08/10 09:58:45;;;;;;;4.13;2.40;;;;;;;27.21;44.03;102735.09;4985436;28;20180;-77
2022/08/10 10:01:23;;;;;;;2.70;2.45;;;;;;;27.26;43.56;102738.81;4987740;28;20096;-80
2022/08/10 10:04:08;;;;;;;3.55;1.52;;;;;;;27.52;43.11;102735.19;4985493;28;20061;-79
2022/08/10 10:06:46;;;;;;;2.25;1.70;;;;;;;27.69;43.09;102724.69;5001206;28;20053;-78
2022/08/10 10:09:21;;;;;;;3.13;1.52;;;;;;;27.64;41.69;102730.25;4990403;28;20469;-78
2022/08/10 10:12:11;;;;;;;5.13;2.63;;;;;;;27.74;41.82;102729.53;4990851;28;20057;-78
2022/08/10 10:15:22;;;;;;;4.47;1.95;;;;;;;27.97;41.50;102717.97;4986341;28;20423;-77
2022/08/10 10:18:18;;;;;;;4.80;1.63;;;;;;;27.80;41.39;102711.59;4975420;28;20189;-77
2022/08/10 10:21:14;;;;;;;3.28;1.58;;;;;;;28.29;40.56;102714.03;4972888;28;20410;-76
2022/08/10 10:24:02;;;;;;;2.33;1.58;;;;;;;28.27;39.76;102706.97;4987389;28;20173;-78
2022/08/10 10:26:46;;;;;;;2.00;1.40;;;;;;;28.29;40.55;102699.94;4990149;28;20398;-77
2022/08/10 10:29:42;;;;;;;3.10;1.60;;;;;;;28.66;40.50;102700.78;4989820;28;20061;-78
2022/08/10 10:32:17;;;;;;;2.50;1.67;;;;;;;28.37;38.84;102690.09;4986022;28;20119;-78
2022/08/10 10:34:49;;;;;;;2.72;1.65;;;;;;;28.56;38.57;102688.59;4994894;28;20125;-78
2022/08/10 10:37:16;;;;;;;5.30;1.50;;;;;;;28.80;40.09;102689.88;4991162;28;20042;-78
2022/08/10 10:39:44;;;;;;;4.53;1.55;;;;;;;29.15;38.18;102685.28;5009055;28;20038;-79
2022/08/10 10:42:34;;;;;;;4.63;1.45;;;;;;;29.42;36.63;102688.78;5011750;28;20083;-76
2022/08/10 10:45:15;;;;;;;3.97;1.42;;;;;;;29.50;36.80;102684.56;4990588;28;20066;-79
2022/08/10 10:47:52;;;;;;;2.83;1.40;;;;;;;29.65;35.68;102677.00;4992231;28;20030;-77
2022/08/10 10:50:36;;;;;;;1.55;1.30;;;;;;;29.86;36.17;102695.69;4991189;28;20066;-77
2022/08/10 10:53:18;;;;;;;3.70;1.50;;;;;;;29.62;35.62;102679.53;4988900;28;20026;-76
2022/08/10 10:56:09;;;;;;;3.30;1.45;;;;;;;29.64;35.83;102675.28;4991375;28;20035;-81
2022/08/10 10:58:47;;;;;;;1.60;1.50;;;;;;;29.64;35.10;102678.13;4988789;28;20034;-79
2022/08/10 11:01:41;;;;;;;1.75;1.40;;;;;;;29.53;35.21;102664.22;4990546;28;20168;-78
2022/08/10 11:04:17;;;;;;;2.78;1.42;;;;;;;29.85;33.86;102674.19;4991013;28;20038;-80
2022/08/10 11:07:22;;;;;;;10.02;1.30;;;;;;;29.89;34.07;102668.81;4991814;28;20030;-80
2022/08/10 11:10:12;;;;;;;5.10;1.33;;;;;;;30.09;34.07;102672.50;4992072;28;20080;-78
2022/08/10 11:13:02;;;;;;;1.88;1.33;;;;;;;29.62;32.68;102671.88;4990177;28;20033;-76
2022/08/10 11:15:35;;;;;;;1.58;1.23;;;;;;;29.54;33.23;102672.44;4990154;28;20065;-76
2022/08/10 11:18:14;;;;;;;2.10;1.30;;;;;;;29.61;32.96;102660.88;4990245;28;20031;-78
2022/08/10 11:21:10;;;;;;;4.45;1.25;;;;;;;29.73;33.60;102655.81;4991754;28;20036;-77
2022/08/10 11:23:47;;;;;;;3.88;1.40;;;;;;;30.23;32.70;102651.03;4991757;28;20051;-76
2022/08/10 11:26:27;;;;;;;;;;;;;;;30.44;32.51;102657.50;4992073;28;20463;-77
2022/08/10 11:29:09;;;;;;;4.70;1.63;;;;;;;30.47;32.42;102654.13;4990292;28;20012;-78
2022/08/10 11:31:42;;;;;;;3.65;2.00;;;;;;;30.19;31.62;102654.72;4990072;28;20045;-77
2022/08/10 11:34:16;;;;;;;4.90;1.73;;;;;;;30.30;31.71;102651.59;4990064;28;20107;-77
2022/08/10 11:36:50;;;;;;;2.75;1.55;;;;;;;30.70;31.92;102645.88;4991562;28;20030;-76
2022/08/10 11:39:25;;;;;;;3.33;1.58;;;;;;;30.57;31.91;102637.13;4990321;28;20038;-75
2022/08/10 11:41:59;;;;;;;1.92;1.45;;;;;;;30.25;31.67;102642.28;4990011;28;20430;-76
2022/08/10 11:44:30;;;;;;;2.38;1.73;;;;;;;29.91;31.93;102641.09;4991459;28;20030;-76
2022/08/10 11:47:08;;;;;;;1.63;1.20;;;;;;;30.59;32.43;102640.50;4991481;28;20022;-76
2022/08/10 11:49:46;;;;;;;4.15;1.50;;;;;;;30.63;32.11;102627.47;4991322;28;20038;-78
2022/08/10 11:52:40;;;;;;;4.65;1.30;;;;;;;30.86;30.84;102626.84;4991349;28;20194;-78
2022/08/10 11:55:30;;;;;;;4.45;1.70;;;;;;;30.77;31.00;102631.41;4995218;28;20100;-78
2022/08/10 11:57:59;;;;;;;4.03;1.40;;;;;;;31.23;30.20;102632.94;5010911;28;20065;-80